sensor_id;sensor_type;location;lat;lon;timestamp;P1;durP1;ratioP1;P2;durP2;ratioP2
18881;SDS011;9573;50.948;11.600;2023-02-18T00:00:28;19.90;;;7.00;;
18881;SDS011;9573;50.948;11.600;2023-02-18T00:02:56;18.77;;;6.60;;
18881;SDS011;9573;50.948;11.600;2023-02-18T00:05:23;20.93;;;7.13;;
18881;SDS011;9573;50.948;11.600;2023-02-18T00:07:50;19.37;;;7.10;;
18881;SDS011;9573;50.948;11.600;2023-02-18T00:10:18;19.23;;;7.07;;
18881;SDS011;9573;50.948;11.600;2023-02-18T00:12:46;19.10;;;6.67;;
18881;SDS011;9573;50.948;11.600;2023-02-18T00:15:16;19.83;;;6.60;;
18881;SDS011;9573;50.948;11.600;2023-02-18T00:17:43;19.53;;;6.80;;
18881;SDS011;9573;50.948;11.600;2023-02-18T00:20:13;19.33;;;6.67;;
18881;SDS011;9573;50.948;11.600;2023-02-18T00:22:41;18.70;;;6.87;;
18881;SDS011;9573;50.948;11.600;2023-02-18T00:25:08;20.93;;;7.17;;
18881;SDS011;9573;50.948;11.600;2023-02-18T00:27:36;17.73;;;6.53;;
18881;SDS011;9573;50.948;11.600;2023-02-18T00:30:04;19.13;;;7.13;;
18881;SDS011;9573;50.948;11.600;2023-02-18T00:32:33;21.47;;;6.57;;
18881;SDS011;9573;50.948;11.600;2023-02-18T00:35:01;19.83;;;6.63;;
18881;SDS011;9573;50.948;11.600;2023-02-18T00:37:29;17.47;;;6.80;;
18881;SDS011;9573;50.948;11.600;2023-02-18T00:39:56;19.37;;;6.90;;
18881;SDS011;9573;50.948;11.600;2023-02-18T00:42:23;20.33;;;7.13;;
18881;SDS011;9573;50.948;11.600;2023-02-18T00:44:52;23.37;;;7.20;;
18881;SDS011;9573;50.948;11.600;2023-02-18T00:47:19;22.57;;;7.40;;
18881;SDS011;9573;50.948;11.600;2023-02-18T00:49:46;19.27;;;6.97;;
18881;SDS011;9573;50.948;11.600;2023-02-18T00:52:13;20.00;;;7.00;;
18881;SDS011;9573;50.948;11.600;2023-02-18T00:54:40;19.63;;;7.03;;
18881;SDS011;9573;50.948;11.600;2023-02-18T00:57:07;19.70;;;7.33;;
18881;SDS011;9573;50.948;11.600;2023-02-18T00:59:34;22.77;;;7.33;;
18881;SDS011;9573;50.948;11.600;2023-02-18T01:02:02;20.87;;;7.33;;
18881;SDS011;9573;50.948;11.600;2023-02-18T01:04:31;23.07;;;7.40;;
18881;SDS011;9573;50.948;11.600;2023-02-18T01:06:58;21.60;;;7.70;;
18881;SDS011;9573;50.948;11.600;2023-02-18T01:09:25;22.63;;;6.90;;
18881;SDS011;9573;50.948;11.600;2023-02-18T01:11:52;21.90;;;7.23;;
18881;SDS011;9573;50.948;11.600;2023-02-18T01:14:19;21.67;;;7.60;;
18881;SDS011;9573;50.948;11.600;2023-02-18T01:16:47;21.30;;;7.73;;
18881;SDS011;9573;50.948;11.600;2023-02-18T01:19:15;22.83;;;7.87;;
18881;SDS011;9573;50.948;11.600;2023-02-18T01:21:42;22.30;;;7.70;;
18881;SDS011;9573;50.948;11.600;2023-02-18T01:24:09;21.43;;;7.80;;
18881;SDS011;9573;50.948;11.600;2023-02-18T01:26:36;19.27;;;6.90;;
18881;SDS011;9573;50.948;11.600;2023-02-18T01:29:03;19.30;;;6.37;;
18881;SDS011;9573;50.948;11.600;2023-02-18T01:31:30;21.40;;;6.10;;
18881;SDS011;9573;50.948;11.600;2023-02-18T01:33:57;20.67;;;6.23;;
18881;SDS011;9573;50.948;11.600;2023-02-18T01:36:26;14.90;;;5.87;;
18881;SDS011;9573;50.948;11.600;2023-02-18T01:38:53;15.97;;;5.63;;
18881;SDS011;9573;50.948;11.600;2023-02-18T01:41:20;17.67;;;5.87;;
18881;SDS011;9573;50.948;11.600;2023-02-18T01:43:48;19.37;;;5.60;;
18881;SDS011;9573;50.948;11.600;2023-02-18T01:46:38;19.77;;;6.27;;
18881;SDS011;9573;50.948;11.600;2023-02-18T01:49:06;15.27;;;5.30;;
18881;SDS011;9573;50.948;11.600;2023-02-18T01:51:36;14.67;;;5.13;;
18881;SDS011;9573;50.948;11.600;2023-02-18T01:54:09;16.27;;;5.70;;
18881;SDS011;9573;50.948;11.600;2023-02-18T01:56:41;19.00;;;5.80;;
18881;SDS011;9573;50.948;11.600;2023-02-18T02:02:01;17.70;;;5.47;;
18881;SDS011;9573;50.948;11.600;2023-02-18T02:04:29;17.60;;;5.10;;
18881;SDS011;9573;50.948;11.600;2023-02-18T02:06:57;14.93;;;5.23;;
18881;SDS011;9573;50.948;11.600;2023-02-18T02:09:26;16.23;;;5.50;;
18881;SDS011;9573;50.948;11.600;2023-02-18T02:15:03;17.73;;;5.60;;
18881;SDS011;9573;50.948;11.600;2023-02-18T02:17:48;15.97;;;5.40;;
18881;SDS011;9573;50.948;11.600;2023-02-18T02:21:01;18.67;;;5.90;;
18881;SDS011;9573;50.948;11.600;2023-02-18T02:27:28;15.73;;;5.70;;
18881;SDS011;9573;50.948;11.600;2023-02-18T02:33:35;20.33;;;5.77;;
18881;SDS011;9573;50.948;11.600;2023-02-18T02:36:22;16.53;;;5.37;;
18881;SDS011;9573;50.948;11.600;2023-02-18T02:38:59;13.07;;;4.27;;
18881;SDS011;9573;50.948;11.600;2023-02-18T02:41:38;17.73;;;5.57;;
18881;SDS011;9573;50.948;11.600;2023-02-18T02:44:18;17.37;;;5.53;;
18881;SDS011;9573;50.948;11.600;2023-02-18T02:46:48;18.80;;;5.43;;
18881;SDS011;9573;50.948;11.600;2023-02-18T02:49:23;16.03;;;5.73;;
18881;SDS011;9573;50.948;11.600;2023-02-18T02:52:02;17.57;;;5.73;;
18881;SDS011;9573;50.948;11.600;2023-02-18T02:54:33;18.07;;;5.40;;
18881;SDS011;9573;50.948;11.600;2023-02-18T02:57:04;14.30;;;5.30;;
18881;SDS011;9573;50.948;11.600;2023-02-18T02:59:35;14.80;;;5.40;;
18881;SDS011;9573;50.948;11.600;2023-02-18T03:02:17;14.70;;;5.47;;
18881;SDS011;9573;50.948;11.600;2023-02-18T03:04:58;18.50;;;5.50;;
18881;SDS011;9573;50.948;11.600;2023-02-18T03:07:53;15.40;;;5.90;;
18881;SDS011;9573;50.948;11.600;2023-02-18T03:10:48;15.23;;;4.97;;
18881;SDS011;9573;50.948;11.600;2023-02-18T03:13:29;14.57;;;5.20;;
18881;SDS011;9573;50.948;11.600;2023-02-18T03:16:15;17.20;;;5.60;;
18881;SDS011;9573;50.948;11.600;2023-02-18T03:18:54;20.77;;;5.90;;
18881;SDS011;9573;50.948;11.600;2023-02-18T03:21:29;18.90;;;5.97;;
18881;SDS011;9573;50.948;11.600;2023-02-18T03:24:02;19.00;;;5.57;;
18881;SDS011;9573;50.948;11.600;2023-02-18T03:26:36;18.60;;;5.73;;
18881;SDS011;9573;50.948;11.600;2023-02-18T03:29:12;17.27;;;6.00;;
18881;SDS011;9573;50.948;11.600;2023-02-18T03:31:42;17.50;;;5.40;;
18881;SDS011;9573;50.948;11.600;2023-02-18T03:34:14;15.77;;;5.33;;
18881;SDS011;9573;50.948;11.600;2023-02-18T03:36:45;16.00;;;5.40;;
18881;SDS011;9573;50.948;11.600;2023-02-18T03:39:15;16.73;;;5.47;;
18881;SDS011;9573;50.948;11.600;2023-02-18T03:41:44;14.47;;;5.57;;
18881;SDS011;9573;50.948;11.600;2023-02-18T03:44:11;18.10;;;5.77;;
18881;SDS011;9573;50.948;11.600;2023-02-18T03:46:39;18.53;;;5.40;;
18881;SDS011;9573;50.948;11.600;2023-02-18T03:49:08;19.37;;;5.60;;
18881;SDS011;9573;50.948;11.600;2023-02-18T03:51:36;13.87;;;5.47;;
18881;SDS011;9573;50.948;11.600;2023-02-18T03:54:03;16.27;;;5.47;;
18881;SDS011;9573;50.948;11.600;2023-02-18T03:56:32;15.40;;;5.20;;
18881;SDS011;9573;50.948;11.600;2023-02-18T03:58:59;16.33;;;5.80;;
18881;SDS011;9573;50.948;11.600;2023-02-18T04:01:26;18.27;;;5.83;;
18881;SDS011;9573;50.948;11.600;2023-02-18T04:03:54;15.60;;;5.60;;
18881;SDS011;9573;50.948;11.600;2023-02-18T04:06:21;15.00;;;5.50;;
18881;SDS011;9573;50.948;11.600;2023-02-18T04:08:49;17.13;;;5.87;;
18881;SDS011;9573;50.948;11.600;2023-02-18T04:11:16;17.93;;;6.17;;
18881;SDS011;9573;50.948;11.600;2023-02-18T04:13:45;17.43;;;5.80;;
18881;SDS011;9573;50.948;11.600;2023-02-18T04:16:12;16.23;;;6.03;;
18881;SDS011;9573;50.948;11.600;2023-02-18T04:18:39;15.07;;;5.50;;
18881;SDS011;9573;50.948;11.600;2023-02-18T04:21:06;16.60;;;5.60;;
18881;SDS011;9573;50.948;11.600;2023-02-18T04:23:33;16.77;;;5.60;;
18881;SDS011;9573;50.948;11.600;2023-02-18T04:26:00;16.00;;;5.37;;
18881;SDS011;9573;50.948;11.600;2023-02-18T04:28:28;18.17;;;5.90;;
18881;SDS011;9573;50.948;11.600;2023-02-18T04:30:56;19.87;;;5.97;;
18881;SDS011;9573;50.948;11.600;2023-02-18T04:33:23;17.00;;;5.97;;
18881;SDS011;9573;50.948;11.600;2023-02-18T04:35:50;16.70;;;5.93;;
18881;SDS011;9573;50.948;11.600;2023-02-18T04:38:17;18.37;;;6.17;;
18881;SDS011;9573;50.948;11.600;2023-02-18T04:40:44;19.67;;;5.97;;
18881;SDS011;9573;50.948;11.600;2023-02-18T04:43:12;20.30;;;6.37;;
18881;SDS011;9573;50.948;11.600;2023-02-18T04:45:39;18.60;;;6.37;;
18881;SDS011;9573;50.948;11.600;2023-02-18T04:48:07;18.40;;;6.20;;
18881;SDS011;9573;50.948;11.600;2023-02-18T04:50:34;16.50;;;6.13;;
18881;SDS011;9573;50.948;11.600;2023-02-18T04:53:01;16.87;;;6.23;;
18881;SDS011;9573;50.948;11.600;2023-02-18T04:55:29;20.83;;;6.40;;
18881;SDS011;9573;50.948;11.600;2023-02-18T04:57:56;18.73;;;6.13;;
18881;SDS011;9573;50.948;11.600;2023-02-18T05:00:23;19.90;;;6.30;;
18881;SDS011;9573;50.948;11.600;2023-02-18T05:02:52;21.43;;;6.67;;
18881;SDS011;9573;50.948;11.600;2023-02-18T05:05:21;19.97;;;6.20;;
18881;SDS011;9573;50.948;11.600;2023-02-18T05:07:48;21.70;;;6.77;;
18881;SDS011;9573;50.948;11.600;2023-02-18T05:10:16;18.50;;;6.53;;
18881;SDS011;9573;50.948;11.600;2023-02-18T05:12:43;22.03;;;6.20;;
18881;SDS011;9573;50.948;11.600;2023-02-18T05:15:10;21.17;;;6.93;;
18881;SDS011;9573;50.948;11.600;2023-02-18T05:17:37;18.93;;;6.27;;
18881;SDS011;9573;50.948;11.600;2023-02-18T05:20:05;19.27;;;6.03;;
18881;SDS011;9573;50.948;11.600;2023-02-18T05:22:35;20.60;;;6.57;;
18881;SDS011;9573;50.948;11.600;2023-02-18T05:25:02;19.67;;;6.50;;
18881;SDS011;9573;50.948;11.600;2023-02-18T05:27:30;18.60;;;6.50;;
18881;SDS011;9573;50.948;11.600;2023-02-18T05:29:57;18.40;;;6.23;;
18881;SDS011;9573;50.948;11.600;2023-02-18T05:32:24;19.77;;;6.60;;
18881;SDS011;9573;50.948;11.600;2023-02-18T05:34:51;17.47;;;6.00;;
18881;SDS011;9573;50.948;11.600;2023-02-18T05:37:18;21.10;;;6.27;;
18881;SDS011;9573;50.948;11.600;2023-02-18T05:39:47;21.23;;;7.50;;
18881;SDS011;9573;50.948;11.600;2023-02-18T05:42:14;22.83;;;7.73;;
18881;SDS011;9573;50.948;11.600;2023-02-18T05:44:41;22.90;;;7.70;;
18881;SDS011;9573;50.948;11.600;2023-02-18T05:47:09;19.87;;;6.87;;
18881;SDS011;9573;50.948;11.600;2023-02-18T05:49:38;21.93;;;7.80;;
18881;SDS011;9573;50.948;11.600;2023-02-18T05:52:07;23.13;;;7.20;;
18881;SDS011;9573;50.948;11.600;2023-02-18T05:54:35;22.50;;;7.13;;
18881;SDS011;9573;50.948;11.600;2023-02-18T05:57:04;21.53;;;7.60;;
18881;SDS011;9573;50.948;11.600;2023-02-18T05:59:32;23.53;;;7.60;;
18881;SDS011;9573;50.948;11.600;2023-02-18T06:01:59;21.40;;;7.57;;
18881;SDS011;9573;50.948;11.600;2023-02-18T06:04:26;23.23;;;8.30;;
18881;SDS011;9573;50.948;11.600;2023-02-18T06:06:53;19.37;;;6.80;;
18881;SDS011;9573;50.948;11.600;2023-02-18T06:09:20;19.93;;;7.30;;
18881;SDS011;9573;50.948;11.600;2023-02-18T06:11:48;20.50;;;7.17;;
18881;SDS011;9573;50.948;11.600;2023-02-18T06:14:16;25.33;;;8.50;;
18881;SDS011;9573;50.948;11.600;2023-02-18T06:16:43;17.43;;;6.23;;
18881;SDS011;9573;50.948;11.600;2023-02-18T06:19:10;19.43;;;6.53;;
18881;SDS011;9573;50.948;11.600;2023-02-18T06:21:37;14.90;;;5.47;;
18881;SDS011;9573;50.948;11.600;2023-02-18T06:24:05;15.37;;;5.40;;
18881;SDS011;9573;50.948;11.600;2023-02-18T06:26:32;15.30;;;5.43;;
18881;SDS011;9573;50.948;11.600;2023-02-18T06:28:59;14.90;;;5.20;;
18881;SDS011;9573;50.948;11.600;2023-02-18T06:31:28;13.17;;;5.00;;
18881;SDS011;9573;50.948;11.600;2023-02-18T06:33:55;15.33;;;4.73;;
18881;SDS011;9573;50.948;11.600;2023-02-18T06:36:22;13.17;;;4.60;;
18881;SDS011;9573;50.948;11.600;2023-02-18T06:38:49;12.07;;;4.40;;
18881;SDS011;9573;50.948;11.600;2023-02-18T06:41:18;9.63;;;4.20;;
18881;SDS011;9573;50.948;11.600;2023-02-18T06:43:45;11.90;;;4.00;;
18881;SDS011;9573;50.948;11.600;2023-02-18T06:46:12;14.43;;;4.43;;
18881;SDS011;9573;50.948;11.600;2023-02-18T06:48:40;16.17;;;5.50;;
18881;SDS011;9573;50.948;11.600;2023-02-18T06:51:07;20.07;;;5.87;;
18881;SDS011;9573;50.948;11.600;2023-02-18T06:53:34;12.50;;;3.97;;
18881;SDS011;9573;50.948;11.600;2023-02-18T06:56:02;12.43;;;4.07;;
18881;SDS011;9573;50.948;11.600;2023-02-18T06:58:29;8.67;;;3.43;;
18881;SDS011;9573;50.948;11.600;2023-02-18T07:00:56;9.13;;;2.80;;
18881;SDS011;9573;50.948;11.600;2023-02-18T07:03:23;7.70;;;2.90;;
18881;SDS011;9573;50.948;11.600;2023-02-18T07:05:52;4.63;;;2.57;;
18881;SDS011;9573;50.948;11.600;2023-02-18T07:08:19;4.47;;;2.60;;
18881;SDS011;9573;50.948;11.600;2023-02-18T07:10:46;5.03;;;2.43;;
18881;SDS011;9573;50.948;11.600;2023-02-18T07:13:13;7.73;;;2.70;;
18881;SDS011;9573;50.948;11.600;2023-02-18T07:15:40;5.27;;;2.70;;
18881;SDS011;9573;50.948;11.600;2023-02-18T07:18:11;4.60;;;2.40;;
18881;SDS011;9573;50.948;11.600;2023-02-18T07:20:38;5.63;;;2.90;;
18881;SDS011;9573;50.948;11.600;2023-02-18T07:23:06;5.27;;;2.50;;
18881;SDS011;9573;50.948;11.600;2023-02-18T07:25:35;5.00;;;2.50;;
18881;SDS011;9573;50.948;11.600;2023-02-18T07:28:02;3.93;;;2.20;;
18881;SDS011;9573;50.948;11.600;2023-02-18T07:30:29;5.07;;;1.93;;
18881;SDS011;9573;50.948;11.600;2023-02-18T07:32:57;2.30;;;1.50;;
18881;SDS011;9573;50.948;11.600;2023-02-18T07:35:24;2.47;;;1.50;;
18881;SDS011;9573;50.948;11.600;2023-02-18T07:37:51;4.03;;;1.87;;
18881;SDS011;9573;50.948;11.600;2023-02-18T07:40:20;5.90;;;1.80;;
18881;SDS011;9573;50.948;11.600;2023-02-18T07:42:47;1.93;;;1.40;;
18881;SDS011;9573;50.948;11.600;2023-02-18T07:45:15;1.40;;;1.30;;
18881;SDS011;9573;50.948;11.600;2023-02-18T07:47:42;2.80;;;1.50;;
18881;SDS011;9573;50.948;11.600;2023-02-18T07:50:10;3.33;;;1.03;;
18881;SDS011;9573;50.948;11.600;2023-02-18T07:52:40;2.10;;;1.00;;
18881;SDS011;9573;50.948;11.600;2023-02-18T07:55:07;4.60;;;1.20;;
18881;SDS011;9573;50.948;11.600;2023-02-18T07:57:36;1.60;;;1.00;;
18881;SDS011;9573;50.948;11.600;2023-02-18T08:00:21;1.97;;;1.10;;
18881;SDS011;9573;50.948;11.600;2023-02-18T08:02:51;1.17;;;1.00;;
18881;SDS011;9573;50.948;11.600;2023-02-18T08:05:18;2.03;;;1.00;;
18881;SDS011;9573;50.948;11.600;2023-02-18T08:07:46;2.00;;;1.00;;
18881;SDS011;9573;50.948;11.600;2023-02-18T08:10:13;1.07;;;0.93;;
18881;SDS011;9573;50.948;11.600;2023-02-18T08:12:42;2.77;;;1.23;;
18881;SDS011;9573;50.948;11.600;2023-02-18T08:15:09;1.00;;;1.00;;
18881;SDS011;9573;50.948;11.600;2023-02-18T08:17:36;3.90;;;1.50;;
18881;SDS011;9573;50.948;11.600;2023-02-18T08:20:03;1.17;;;0.97;;
18881;SDS011;9573;50.948;11.600;2023-02-18T08:22:32;1.33;;;1.10;;
18881;SDS011;9573;50.948;11.600;2023-02-18T08:24:59;1.13;;;1.03;;
18881;SDS011;9573;50.948;11.600;2023-02-18T08:27:26;2.53;;;1.07;;
18881;SDS011;9573;50.948;11.600;2023-02-18T08:29:55;1.33;;;0.80;;
18881;SDS011;9573;50.948;11.600;2023-02-18T08:32:25;2.73;;;0.93;;
18881;SDS011;9573;50.948;11.600;2023-02-18T08:34:53;1.47;;;1.10;;
18881;SDS011;9573;50.948;11.600;2023-02-18T08:37:20;1.20;;;1.00;;
18881;SDS011;9573;50.948;11.600;2023-02-18T08:39:48;0.80;;;0.80;;
18881;SDS011;9573;50.948;11.600;2023-02-18T08:42:15;0.77;;;0.77;;
18881;SDS011;9573;50.948;11.600;2023-02-18T08:44:42;1.30;;;0.80;;
18881;SDS011;9573;50.948;11.600;2023-02-18T08:47:11;1.07;;;0.70;;
18881;SDS011;9573;50.948;11.600;2023-02-18T08:49:38;0.80;;;0.70;;
18881;SDS011;9573;50.948;11.600;2023-02-18T08:52:05;3.33;;;0.90;;
18881;SDS011;9573;50.948;11.600;2023-02-18T08:54:32;0.60;;;0.60;;
18881;SDS011;9573;50.948;11.600;2023-02-18T08:56:59;0.60;;;0.50;;
18881;SDS011;9573;50.948;11.600;2023-02-18T08:59:27;0.83;;;0.83;;
18881;SDS011;9573;50.948;11.600;2023-02-18T09:01:54;1.03;;;0.70;;
18881;SDS011;9573;50.948;11.600;2023-02-18T09:04:22;1.93;;;0.70;;
18881;SDS011;9573;50.948;11.600;2023-02-18T09:06:49;2.20;;;0.80;;
18881;SDS011;9573;50.948;11.600;2023-02-18T09:09:16;1.90;;;0.80;;
18881;SDS011;9573;50.948;11.600;2023-02-18T09:11:43;1.30;;;0.53;;
18881;SDS011;9573;50.948;11.600;2023-02-18T09:14:11;1.30;;;0.77;;
18881;SDS011;9573;50.948;11.600;2023-02-18T09:16:39;0.77;;;0.50;;
18881;SDS011;9573;50.948;11.600;2023-02-18T09:19:08;0.50;;;0.50;;
18881;SDS011;9573;50.948;11.600;2023-02-18T09:21:37;0.40;;;0.40;;
18881;SDS011;9573;50.948;11.600;2023-02-18T09:24:04;0.60;;;0.60;;
18881;SDS011;9573;50.948;11.600;2023-02-18T09:26:32;1.40;;;0.57;;
18881;SDS011;9573;50.948;11.600;2023-02-18T09:28:59;0.67;;;0.40;;
18881;SDS011;9573;50.948;11.600;2023-02-18T09:31:26;0.80;;;0.53;;
18881;SDS011;9573;50.948;11.600;2023-02-18T09:33:55;0.40;;;0.40;;
18881;SDS011;9573;50.948;11.600;2023-02-18T09:36:25;0.40;;;0.40;;
18881;SDS011;9573;50.948;11.600;2023-02-18T09:38:54;3.53;;;0.63;;
18881;SDS011;9573;50.948;11.600;2023-02-18T09:41:32;0.20;;;0.20;;
18881;SDS011;9573;50.948;11.600;2023-02-18T09:44:05;0.30;;;0.30;;
18881;SDS011;9573;50.948;11.600;2023-02-18T09:46:40;0.63;;;0.50;;
18881;SDS011;9573;50.948;11.600;2023-02-18T09:49:15;0.30;;;0.30;;
18881;SDS011;9573;50.948;11.600;2023-02-18T09:51:45;1.27;;;0.40;;
18881;SDS011;9573;50.948;11.600;2023-02-18T09:54:15;0.40;;;0.40;;
18881;SDS011;9573;50.948;11.600;2023-02-18T09:56:44;2.10;;;0.33;;
18881;SDS011;9573;50.948;11.600;2023-02-18T09:59:15;0.40;;;0.30;;
18881;SDS011;9573;50.948;11.600;2023-02-18T10:01:46;2.47;;;0.40;;
18881;SDS011;9573;50.948;11.600;2023-02-18T10:04:16;1.23;;;0.60;;
18881;SDS011;9573;50.948;11.600;2023-02-18T10:06:48;0.47;;;0.47;;
18881;SDS011;9573;50.948;11.600;2023-02-18T10:09:20;0.63;;;0.33;;
18881;SDS011;9573;50.948;11.600;2023-02-18T10:11:55;2.07;;;0.40;;
18881;SDS011;9573;50.948;11.600;2023-02-18T10:14:28;0.23;;;0.23;;
18881;SDS011;9573;50.948;11.600;2023-02-18T10:16:58;1.07;;;0.50;;
18881;SDS011;9573;50.948;11.600;2023-02-18T10:19:30;0.37;;;0.37;;
18881;SDS011;9573;50.948;11.600;2023-02-18T10:22:03;0.20;;;0.20;;
18881;SDS011;9573;50.948;11.600;2023-02-18T10:24:34;0.60;;;0.30;;
18881;SDS011;9573;50.948;11.600;2023-02-18T10:27:08;0.30;;;0.30;;
18881;SDS011;9573;50.948;11.600;2023-02-18T10:29:42;1.87;;;0.60;;
18881;SDS011;9573;50.948;11.600;2023-02-18T10:32:12;4.67;;;0.83;;
18881;SDS011;9573;50.948;11.600;2023-02-18T10:34:48;0.40;;;0.30;;
18881;SDS011;9573;50.948;11.600;2023-02-18T10:40:21;0.23;;;0.23;;
18881;SDS011;9573;50.948;11.600;2023-02-18T10:42:59;0.47;;;0.47;;
18881;SDS011;9573;50.948;11.600;2023-02-18T10:45:36;1.20;;;0.63;;
18881;SDS011;9573;50.948;11.600;2023-02-18T10:48:16;1.80;;;0.73;;
18881;SDS011;9573;50.948;11.600;2023-02-18T10:50:58;2.07;;;0.53;;
18881;SDS011;9573;50.948;11.600;2023-02-18T10:53:30;2.13;;;0.60;;
18881;SDS011;9573;50.948;11.600;2023-02-18T10:56:01;3.97;;;0.60;;
18881;SDS011;9573;50.948;11.600;2023-02-18T10:58:30;1.23;;;1.00;;
18881;SDS011;9573;50.948;11.600;2023-02-18T11:01:03;0.87;;;0.70;;
18881;SDS011;9573;50.948;11.600;2023-02-18T11:03:42;0.83;;;0.80;;
18881;SDS011;9573;50.948;11.600;2023-02-18T11:06:15;0.57;;;0.40;;
18881;SDS011;9573;50.948;11.600;2023-02-18T11:08:50;0.37;;;0.37;;
18881;SDS011;9573;50.948;11.600;2023-02-18T11:11:22;1.20;;;0.50;;
18881;SDS011;9573;50.948;11.600;2023-02-18T11:13:55;0.30;;;0.27;;
18881;SDS011;9573;50.948;11.600;2023-02-18T11:16:35;0.20;;;0.20;;
18881;SDS011;9573;50.948;11.600;2023-02-18T11:19:04;1.77;;;0.90;;
18881;SDS011;9573;50.948;11.600;2023-02-18T11:22:05;2.03;;;0.93;;
18881;SDS011;9573;50.948;11.600;2023-02-18T11:24:40;1.00;;;0.90;;
18881;SDS011;9573;50.948;11.600;2023-02-18T11:27:14;2.57;;;0.67;;
18881;SDS011;9573;50.948;11.600;2023-02-18T11:29:50;4.43;;;1.40;;
18881;SDS011;9573;50.948;11.600;2023-02-18T11:32:20;2.87;;;1.20;;
18881;SDS011;9573;50.948;11.600;2023-02-18T11:34:48;1.83;;;0.80;;
18881;SDS011;9573;50.948;11.600;2023-02-18T11:37:16;1.13;;;0.90;;
18881;SDS011;9573;50.948;11.600;2023-02-18T11:39:48;1.83;;;0.60;;
18881;SDS011;9573;50.948;11.600;2023-02-18T11:42:20;2.00;;;0.60;;
18881;SDS011;9573;50.948;11.600;2023-02-18T11:44:51;1.93;;;0.60;;
18881;SDS011;9573;50.948;11.600;2023-02-18T11:47:23;1.43;;;0.57;;
18881;SDS011;9573;50.948;11.600;2023-02-18T11:52:48;0.77;;;0.57;;
18881;SDS011;9573;50.948;11.600;2023-02-18T11:55:17;1.30;;;0.70;;
18881;SDS011;9573;50.948;11.600;2023-02-18T11:57:50;2.17;;;0.60;;
18881;SDS011;9573;50.948;11.600;2023-02-18T12:00:30;0.50;;;0.50;;
18881;SDS011;9573;50.948;11.600;2023-02-18T12:03:06;1.73;;;0.40;;
18881;SDS011;9573;50.948;11.600;2023-02-18T12:05:40;2.50;;;0.77;;
18881;SDS011;9573;50.948;11.600;2023-02-18T12:08:11;4.10;;;0.67;;
18881;SDS011;9573;50.948;11.600;2023-02-18T12:10:45;1.97;;;0.70;;
18881;SDS011;9573;50.948;11.600;2023-02-18T12:13:21;1.07;;;0.60;;
18881;SDS011;9573;50.948;11.600;2023-02-18T12:15:53;4.43;;;0.77;;
18881;SDS011;9573;50.948;11.600;2023-02-18T12:18:34;1.33;;;0.40;;
18881;SDS011;9573;50.948;11.600;2023-02-18T12:21:20;1.03;;;0.60;;
18881;SDS011;9573;50.948;11.600;2023-02-18T12:24:01;1.10;;;0.70;;
18881;SDS011;9573;50.948;11.600;2023-02-18T12:26:44;0.50;;;0.50;;
18881;SDS011;9573;50.948;11.600;2023-02-18T12:29:33;0.60;;;0.60;;
18881;SDS011;9573;50.948;11.600;2023-02-18T12:32:17;1.07;;;0.70;;
18881;SDS011;9573;50.948;11.600;2023-02-18T12:34:59;0.40;;;0.40;;
18881;SDS011;9573;50.948;11.600;2023-02-18T12:37:51;1.37;;;0.60;;
18881;SDS011;9573;50.948;11.600;2023-02-18T12:40:47;3.07;;;1.10;;
18881;SDS011;9573;50.948;11.600;2023-02-18T12:43:39;1.70;;;1.00;;
18881;SDS011;9573;50.948;11.600;2023-02-18T12:46:22;1.43;;;0.83;;
18881;SDS011;9573;50.948;11.600;2023-02-18T12:49:08;1.70;;;0.50;;
18881;SDS011;9573;50.948;11.600;2023-02-18T12:52:08;0.73;;;0.73;;
18881;SDS011;9573;50.948;11.600;2023-02-18T12:58:04;1.63;;;1.10;;
18881;SDS011;9573;50.948;11.600;2023-02-18T13:04:09;1.23;;;0.97;;
18881;SDS011;9573;50.948;11.600;2023-02-18T13:07:00;3.40;;;0.90;;
18881;SDS011;9573;50.948;11.600;2023-02-18T13:13:07;2.27;;;1.00;;
18881;SDS011;9573;50.948;11.600;2023-02-18T13:15:37;3.67;;;0.77;;
18881;SDS011;9573;50.948;11.600;2023-02-18T13:18:10;2.67;;;0.87;;
18881;SDS011;9573;50.948;11.600;2023-02-18T13:20:44;1.87;;;1.10;;
18881;SDS011;9573;50.948;11.600;2023-02-18T13:23:17;2.10;;;1.10;;
18881;SDS011;9573;50.948;11.600;2023-02-18T13:25:48;1.80;;;1.00;;
18881;SDS011;9573;50.948;11.600;2023-02-18T13:28:22;4.63;;;2.00;;
18881;SDS011;9573;50.948;11.600;2023-02-18T13:31:03;2.37;;;0.90;;
18881;SDS011;9573;50.948;11.600;2023-02-18T13:33:46;2.73;;;1.07;;
18881;SDS011;9573;50.948;11.600;2023-02-18T13:36:27;1.10;;;0.77;;
18881;SDS011;9573;50.948;11.600;2023-02-18T13:39:06;0.83;;;0.50;;
18881;SDS011;9573;50.948;11.600;2023-02-18T13:41:35;0.57;;;0.57;;
18881;SDS011;9573;50.948;11.600;2023-02-18T13:44:08;4.07;;;2.70;;
18881;SDS011;9573;50.948;11.600;2023-02-18T13:47:05;1.80;;;0.73;;
18881;SDS011;9573;50.948;11.600;2023-02-18T13:49:36;1.87;;;0.77;;
18881;SDS011;9573;50.948;11.600;2023-02-18T13:52:15;3.67;;;0.80;;
18881;SDS011;9573;50.948;11.600;2023-02-18T13:54:44;1.40;;;0.70;;
18881;SDS011;9573;50.948;11.600;2023-02-18T13:57:13;0.83;;;0.50;;
18881;SDS011;9573;50.948;11.600;2023-02-18T13:59:45;1.70;;;0.60;;
18881;SDS011;9573;50.948;11.600;2023-02-18T14:02:31;0.60;;;0.43;;
18881;SDS011;9573;50.948;11.600;2023-02-18T14:05:14;1.23;;;0.90;;
18881;SDS011;9573;50.948;11.600;2023-02-18T14:07:49;0.53;;;0.53;;
18881;SDS011;9573;50.948;11.600;2023-02-18T14:10:26;1.13;;;0.87;;
18881;SDS011;9573;50.948;11.600;2023-02-18T14:16:06;1.83;;;0.90;;
18881;SDS011;9573;50.948;11.600;2023-02-18T14:24:09;0.83;;;0.70;;
18881;SDS011;9573;50.948;11.600;2023-02-18T14:26:39;4.00;;;1.30;;
18881;SDS011;9573;50.948;11.600;2023-02-18T14:29:12;1.63;;;1.00;;
18881;SDS011;9573;50.948;11.600;2023-02-18T14:31:51;2.80;;;1.13;;
18881;SDS011;9573;50.948;11.600;2023-02-18T14:34:38;2.17;;;0.90;;
18881;SDS011;9573;50.948;11.600;2023-02-18T14:40:57;1.87;;;1.00;;
18881;SDS011;9573;50.948;11.600;2023-02-18T14:44:08;3.83;;;1.00;;
18881;SDS011;9573;50.948;11.600;2023-02-18T14:47:18;1.93;;;0.73;;
18881;SDS011;9573;50.948;11.600;2023-02-18T14:49:54;1.90;;;1.10;;
18881;SDS011;9573;50.948;11.600;2023-02-18T14:52:27;3.00;;;0.70;;
18881;SDS011;9573;50.948;11.600;2023-02-18T14:54:57;2.53;;;1.10;;
18881;SDS011;9573;50.948;11.600;2023-02-18T14:57:30;3.10;;;0.83;;
18881;SDS011;9573;50.948;11.600;2023-02-18T15:00:03;0.90;;;0.77;;
18881;SDS011;9573;50.948;11.600;2023-02-18T15:02:34;1.40;;;0.83;;
18881;SDS011;9573;50.948;11.600;2023-02-18T15:05:13;4.70;;;0.97;;
18881;SDS011;9573;50.948;11.600;2023-02-18T15:07:53;1.93;;;0.93;;
18881;SDS011;9573;50.948;11.600;2023-02-18T15:10:26;1.30;;;1.07;;
18881;SDS011;9573;50.948;11.600;2023-02-18T15:13:11;1.33;;;0.70;;
18881;SDS011;9573;50.948;11.600;2023-02-18T15:15:43;1.70;;;1.00;;
18881;SDS011;9573;50.948;11.600;2023-02-18T15:18:17;1.27;;;1.00;;
18881;SDS011;9573;50.948;11.600;2023-02-18T15:20:53;1.30;;;1.10;;
18881;SDS011;9573;50.948;11.600;2023-02-18T15:23:21;4.70;;;0.97;;
18881;SDS011;9573;50.948;11.600;2023-02-18T15:25:49;1.23;;;1.03;;
18881;SDS011;9573;50.948;11.600;2023-02-18T15:28:24;2.00;;;0.90;;
18881;SDS011;9573;50.948;11.600;2023-02-18T15:30:54;0.60;;;0.60;;
18881;SDS011;9573;50.948;11.600;2023-02-18T15:33:23;1.70;;;0.90;;
18881;SDS011;9573;50.948;11.600;2023-02-18T15:35:50;1.60;;;0.83;;
18881;SDS011;9573;50.948;11.600;2023-02-18T15:38:18;4.27;;;1.30;;
18881;SDS011;9573;50.948;11.600;2023-02-18T15:40:46;4.23;;;1.00;;
18881;SDS011;9573;50.948;11.600;2023-02-18T15:43:17;1.80;;;0.80;;
18881;SDS011;9573;50.948;11.600;2023-02-18T15:45:48;1.10;;;0.50;;
18881;SDS011;9573;50.948;11.600;2023-02-18T15:48:22;0.60;;;0.60;;